Time;durP1;ratioP1;P1;durP2;ratioP2;P2;SDS_P1;SDS_P2;PMS_P1;PMS_P2;Temp;Humidity;BMP_temperature;BMP_pressure;BME280_temperature;BME280_humidity;BME280_pressure;Samples;Min_cycle;Max_cycle;Signal;HPM_P1;HPM_P2
2022/07/14 00:02:25;;;;;;;4.20;2.63;;;;;;;21.50;64.55;100676.41;5116762;28;20062;-58
2022/07/14 00:04:51;;;;;;;5.18;3.22;;;;;;;21.47;64.63;100669.53;5114751;28;20052;-56
2022/07/14 00:07:20;;;;;;;4.00;2.95;;;;;;;21.44;64.50;100674.09;5113533;28;20054;-57
2022/07/14 00:09:49;;;;;;;5.55;3.10;;;;;;;21.41;64.62;100678.63;5113881;28;20040;-57
2022/07/14 00:12:19;;;;;;;5.00;2.70;;;;;;;21.40;64.77;100676.91;5116473;28;20126;-58
2022/07/14 00:14:47;;;;;;;5.78;3.65;;;;;;;21.38;64.92;100676.16;5116399;28;20139;-58
2022/07/14 00:17:14;;;;;;;4.47;2.92;;;;;;;21.35;64.98;100678.94;5116494;28;20129;-58
2022/07/14 00:19:51;;;;;;;4.30;2.97;;;;;;;21.33;65.14;100672.91;5115708;28;20054;-57
2022/07/14 00:22:22;;;;;;;6.80;2.63;;;;;;;21.31;65.06;100680.00;5115126;28;20057;-58
2022/07/14 00:24:48;;;;;;;3.95;2.75;;;;;;;21.29;65.28;100671.34;5113685;28;20043;-57
2022/07/14 00:27:18;;;;;;;4.10;2.60;;;;;;;21.27;65.26;100673.22;5115898;28;20051;-58
2022/07/14 00:29:45;;;;;;;5.82;2.88;;;;;;;21.25;65.26;100679.50;5115527;28;20086;-55
2022/07/14 00:32:13;;;;;;;3.17;2.38;;;;;;;21.21;65.18;100681.41;5115109;28;20052;-57
2022/07/14 00:34:42;;;;;;;5.43;2.80;;;;;;;21.20;65.33;100682.34;5115168;28;20047;-57
2022/07/14 00:37:19;;;;;;;4.70;2.70;;;;;;;21.20;65.16;100681.50;5113624;28;20058;-58
2022/07/14 00:40:03;;;;;;;9.77;3.22;;;;;;;21.16;65.48;100682.59;5115204;28;20047;-58
2022/07/14 00:42:37;;;;;;;3.90;2.57;;;;;;;21.11;65.56;100681.06;5113751;28;20052;-58
2022/07/14 00:45:13;;;;;;;4.22;2.47;;;;;;;21.08;65.40;100677.72;5115508;28;20054;-58
2022/07/14 00:50:24;;;;;;;8.05;2.80;;;;;;;21.00;65.69;100672.88;5114962;28;20047;-58
2022/07/14 00:52:53;;;;;;;6.40;2.60;;;;;;;20.95;65.73;100666.97;5113350;28;20047;-58
2022/07/14 00:55:22;;;;;;;7.68;2.72;;;;;;;20.93;66.06;100668.00;5115313;28;20087;-57
2022/07/14 00:57:52;;;;;;;5.63;2.70;;;;;;;20.89;65.90;100671.72;5113173;28;20047;-58
2022/07/14 01:00:22;;;;;;;5.53;2.67;;;;;;;20.85;66.22;100680.72;5115643;28;20067;-58
2022/07/14 01:02:50;;;;;;;6.88;2.40;;;;;;;20.82;66.30;100676.47;5113078;28;20077;-58
2022/07/14 01:05:17;;;;;;;5.38;2.50;;;;;;;20.78;66.27;100675.75;5115087;28;20403;-60
2022/07/14 01:07:47;;;;;;;5.15;2.35;;;;;;;20.77;66.24;100676.66;5111908;28;20047;-57
2022/07/14 01:10:15;;;;;;;5.65;2.75;;;;;;;20.74;66.10;100679.47;5115615;28;20081;-58
2022/07/14 01:12:46;;;;;;;5.93;2.60;;;;;;;20.71;66.03;100679.63;5115022;28;20044;-57
2022/07/14 01:15:15;;;;;;;5.38;2.22;;;;;;;20.69;65.95;100678.00;5115501;28;20144;-58
2022/07/14 01:17:47;;;;;;;4.78;2.00;;;;;;;20.64;65.98;100678.22;5114765;28;20104;-58
2022/07/14 01:20:18;;;;;;;4.50;2.22;;;;;;;20.62;65.91;100680.09;5115098;28;20039;-58
2022/07/14 01:22:50;;;;;;;4.80;1.98;;;;;;;20.61;65.56;100683.66;5115171;28;20048;-58
2022/07/14 01:25:27;;;;;;;3.92;2.08;;;;;;;20.56;65.61;100680.41;5114850;27;20139;-55
2022/07/14 01:27:56;;;;;;;4.93;2.00;;;;;;;20.51;65.73;100682.41;5113524;28;20050;-58
2022/07/14 01:30:26;;;;;;;4.10;1.92;;;;;;;20.48;65.70;100683.44;5114940;28;20052;-58
2022/07/14 01:32:56;;;;;;;7.57;2.25;;;;;;;20.47;65.71;100683.50;5114926;28;20043;-56
2022/07/14 01:35:26;;;;;;;5.03;2.50;;;;;;;20.45;65.57;100688.00;5114998;28;20090;-58
2022/07/14 01:37:57;;;;;;;5.70;2.17;;;;;;;20.45;65.71;100693.25;5115224;28;20046;-58
2022/07/14 01:40:27;;;;;;;5.82;2.00;;;;;;;20.44;65.67;100686.28;5114651;27;20092;-58
2022/07/14 01:42:58;;;;;;;7.70;2.40;;;;;;;20.41;65.65;100686.44;5112950;28;20103;-58
2022/07/14 01:48:08;;;;;;;3.60;2.10;;;;;;;20.35;65.80;100686.72;5115085;28;20051;-58
2022/07/14 01:53:18;;;;;;;6.80;2.30;;;;;;;20.29;65.65;100692.25;5114394;28;20051;-57
2022/07/14 01:55:48;;;;;;;4.45;1.42;;;;;;;20.26;65.53;100693.25;5114749;28;20460;-58
2022/07/14 01:58:15;;;;;;;5.97;2.13;;;;;;;20.25;65.44;100701.22;5113525;28;20070;-58
2022/07/14 02:00:42;;;;;;;5.00;1.80;;;;;;;20.23;65.43;100695.19;5114578;28;20059;-58
2022/07/14 02:03:11;;;;;;;4.95;2.05;;;;;;;20.18;65.43;100700.69;5114684;28;20062;-57
2022/07/14 02:05:46;;;;;;;5.18;2.40;;;;;;;20.14;65.53;100707.88;5114462;28;20096;-58
2022/07/14 02:08:15;;;;;;;4.57;2.10;;;;;;;20.11;65.62;100710.66;5110455;28;20052;-58
2022/07/14 02:13:39;;;;;;;5.40;1.73;;;;;;;20.04;65.75;100704.00;5113592;28;20046;-58
2022/07/14 02:16:09;;;;;;;5.40;2.00;;;;;;;20.02;65.62;100711.09;5113902;28;20079;-57
2022/07/14 02:18:39;;;;;;;6.18;2.00;;;;;;;19.98;65.63;100711.31;5113706;28;20057;-57
2022/07/14 02:21:10;;;;;;;5.18;1.90;;;;;;;19.96;65.66;100706.13;5111357;28;20428;-58
2022/07/14 02:23:38;;;;;;;5.70;2.22;;;;;;;19.93;65.53;100705.44;5113863;28;20058;-57
2022/07/14 02:26:13;;;;;;;6.95;1.70;;;;;;;19.91;65.49;100708.13;5111632;28;20048;-58
2022/07/14 02:28:39;;;;;;;7.93;2.10;;;;;;;19.87;65.59;100711.84;5113859;28;20058;-57
2022/07/14 02:31:12;;;;;;;4.13;1.63;;;;;;;19.85;65.57;100708.44;5114124;28;20104;-57
2022/07/14 02:33:41;;;;;;;6.53;2.00;;;;;;;19.81;65.47;100706.88;5114330;28;20429;-58
2022/07/14 02:36:11;;;;;;;4.13;1.92;;;;;;;19.77;65.57;100710.53;5114115;28;20051;-58
2022/07/14 02:38:40;;;;;;;7.00;1.90;;;;;;;19.73;65.71;100716.84;5116803;27;20129;-57
2022/07/14 02:41:09;;;;;;;6.90;1.98;;;;;;;19.70;65.56;100719.63;5111464;28;20067;-58
2022/07/14 02:43:40;;;;;;;6.22;1.67;;;;;;;19.69;65.48;100723.19;5107921;28;20048;-57
2022/07/14 02:46:17;;;;;;;10.38;1.98;;;;;;;19.63;65.31;100723.47;5114302;28;20051;-57
2022/07/14 02:48:46;;;;;;;6.20;1.48;;;;;;;19.54;65.57;100725.59;5111527;28;20134;-57
2022/07/14 02:51:15;;;;;;;11.40;1.70;;;;;;;19.52;65.56;100727.44;5110402;28;20052;-56
2022/07/14 02:53:46;;;;;;;8.23;2.08;;;;;;;19.51;65.50;100724.84;5109221;28;20047;-56
2022/07/14 02:56:17;;;;;;;7.28;1.73;;;;;;;19.47;65.53;100726.78;5110409;28;20521;-57
2022/07/14 02:58:52;;;;;;;5.57;2.08;;;;;;;19.44;65.40;100729.53;5105448;28;20457;-57
2022/07/14 03:01:22;;;;;;;4.85;1.30;;;;;;;19.41;65.47;100734.94;5105513;28;20048;-59
2022/07/14 03:03:51;;;;;;;8.88;1.67;;;;;;;19.42;65.40;100736.66;5110029;28;20116;-57
2022/07/14 03:06:28;;;;;;;3.00;1.13;;;;;;;19.42;65.35;100736.66;5108430;28;20132;-57
2022/07/14 03:08:56;;;;;;;6.60;1.40;;;;;;;19.44;65.23;100734.81;5110051;28;20607;-57
2022/07/14 03:11:26;;;;;;;3.80;1.60;;;;;;;19.44;65.14;100742.69;5108527;28;20043;-57
2022/07/14 03:14:07;;;;;;;6.45;1.83;;;;;;;19.46;65.00;100743.47;5112261;28;20391;-57
2022/07/14 03:16:37;;;;;;;2.95;1.20;;;;;;;19.47;65.04;100744.31;5109232;28;20448;-58
2022/07/14 03:19:05;;;;;;;6.43;1.75;;;;;;;19.47;64.77;100747.81;5107202;28;20392;-58
2022/07/14 03:21:33;;;;;;;4.13;1.33;;;;;;;19.50;64.64;100745.03;5107415;28;20383;-57
2022/07/14 03:24:03;;;;;;;6.03;1.45;;;;;;;19.56;64.53;100748.34;5109613;28;20051;-57
2022/07/14 03:26:30;;;;;;;4.15;1.17;;;;;;;19.61;64.32;100743.72;5110018;28;20622;-57
2022/07/14 03:29:07;;;;;;;8.00;2.15;;;;;;;19.67;63.99;100746.06;5112613;28;20051;-57
2022/07/14 03:31:35;;;;;;;4.55;1.42;;;;;;;19.73;63.73;100751.03;5109324;28;20055;-57
2022/07/14 03:34:04;;;;;;;7.60;1.40;;;;;;;19.78;63.40;100743.84;5110479;28;20104;-58
2022/07/14 03:36:34;;;;;;;8.50;1.42;;;;;;;19.86;62.99;100752.22;5107075;28;20360;-57
2022/07/14 03:39:04;;;;;;;5.43;1.25;;;;;;;19.97;62.58;100754.34;5112618;27;20062;-59
2022/07/14 03:41:30;;;;;;;4.53;1.10;;;;;;;20.06;62.26;100753.91;5112067;28;20449;-58
2022/07/14 03:44:02;;;;;;;10.18;2.03;;;;;;;20.16;62.00;100750.75;5105366;28;20698;-58
2022/07/14 03:46:32;;;;;;;5.65;1.10;;;;;;;20.26;61.36;100761.69;5107946;28;20479;-58
2022/07/14 03:49:01;;;;;;;7.50;1.35;;;;;;;20.30;61.04;100757.16;5108372;28;20384;-57
2022/07/14 03:51:31;;;;;;;4.85;1.20;;;;;;;20.39;60.75;100761.97;5107083;28;20515;-55
2022/07/14 03:54:02;;;;;;;3.88;1.00;;;;;;;20.49;60.19;100763.28;5105102;28;20051;-58
2022/07/14 03:56:31;;;;;;;6.53;1.30;;;;;;;20.59;59.66;100764.53;5096250;28;20127;-58
2022/07/14 03:59:13;;;;;;;6.13;1.15;;;;;;;20.70;58.95;100756.09;5106789;28;20060;-58
2022/07/14 04:01:43;;;;;;;15.30;1.33;;;;;;;20.80;58.74;100752.91;5101797;28;20129;-58
2022/07/14 04:04:19;;;;;;;9.35;1.50;;;;;;;20.97;58.25;100748.59;5109858;28;20131;-58
2022/07/14 04:06:50;;;;;;;7.05;1.27;;;;;;;21.15;57.47;100746.78;5106029;28;20079;-58
2022/07/14 04:09:19;;;;;;;23.65;1.88;;;;;;;21.28;56.91;100747.88;5104994;28;20318;-58
2022/07/14 04:11:50;;;;;;;9.18;1.08;;;;;;;21.42;56.17;100746.25;5109540;28;20448;-58
2022/07/14 04:14:30;;;;;;;7.32;1.00;;;;;;;21.58;55.16;100745.41;5106804;28;20070;-58
2022/07/14 04:17:00;;;;;;;6.50;1.08;;;;;;;21.74;55.07;100743.63;5102901;28;20506;-57
2022/07/14 04:19:29;;;;;;;3.55;1.08;;;;;;;21.91;54.01;100740.97;5106045;28;20109;-56
2022/07/14 04:21:56;;;;;;;4.53;1.52;;;;;;;22.08;53.61;100744.47;5108654;28;20053;-57
2022/07/14 04:24:25;;;;;;;128.30;10.18;;;;;;;22.23;53.07;100744.47;5110392;28;20058;-58
2022/07/14 04:26:52;;;;;;;8.30;0.82;;;;;;;22.39;52.25;100739.19;5106789;28;20093;-57
2022/07/14 04:29:33;;;;;;;22.05;1.33;;;;;;;22.57;51.57;100743.41;5103504;28;20044;-58
2022/07/14 04:32:04;;;;;;;5.45;1.10;;;;;;;22.70;51.59;100737.38;5103964;28;20055;-58
2022/07/14 04:34:32;;;;;;;6.45;1.38;;;;;;;22.87;51.04;100739.91;5101699;28;20055;-59
2022/07/14 04:37:01;;;;;;;13.10;1.55;;;;;;;23.02;50.61;100728.44;5104750;28;20441;-58
2022/07/14 04:39:31;;;;;;;5.07;1.30;;;;;;;23.20;50.21;100737.06;5114834;27;20062;-59
2022/07/14 04:41:59;;;;;;;5.80;1.10;;;;;;;23.34;49.77;100739.72;5106279;28;20048;-58
2022/07/14 04:44:42;;;;;;;7.63;0.95;;;;;;;23.47;49.37;100729.25;5104343;28;20086;-59
2022/07/14 04:47:11;;;;;;;7.63;1.10;;;;;;;23.62;49.09;100732.75;5100698;28;20083;-58
2022/07/14 04:52:22;;;;;;;15.52;1.20;;;;;;;23.90;48.41;100736.19;5107915;28;20050;-59
2022/07/14 04:54:50;;;;;;;8.07;1.23;;;;;;;24.03;48.37;100731.00;5105184;28;20048;-58
2022/07/14 04:57:20;;;;;;;5.68;1.10;;;;;;;24.14;47.74;100732.94;5108265;28;20408;-58
2022/07/14 05:00:02;;;;;;;3.85;1.13;;;;;;;24.30;46.99;100736.31;5107993;28;20078;-59
2022/07/14 05:02:29;;;;;;;4.38;0.80;;;;;;;24.41;47.08;100733.81;5104290;28;20055;-58
2022/07/14 05:04:58;;;;;;;5.55;2.22;;;;;;;24.51;46.58;100745.53;5102804;28;20521;-58
2022/07/14 05:07:29;;;;;;;4.38;0.93;;;;;;;24.59;46.25;100729.13;5105548;28;20160;-58
2022/07/14 05:09:59;;;;;;;15.43;1.40;;;;;;;24.71;46.11;100735.41;5105744;28;20052;-57
2022/07/14 05:12:29;;;;;;;8.68;1.25;;;;;;;24.86;45.70;100732.56;5105507;28;20048;-55
2022/07/14 05:15:06;;;;;;;5.07;0.80;;;;;;;25.00;45.24;100736.97;5101183;28;20059;-58
2022/07/14 05:17:37;;;;;;;5.18;1.30;;;;;;;25.17;45.11;100736.66;5107282;28;20048;-57
2022/07/14 05:20:07;;;;;;;5.05;0.80;;;;;;;25.33;44.63;100738.25;5105448;28;20058;-58
2022/07/14 05:22:45;;;;;;;5.50;0.82;;;;;;;25.46;44.46;100739.91;5102335;28;20468;-55
2022/07/14 05:25:14;;;;;;;4.25;0.80;;;;;;;25.61;43.92;100740.66;5107253;28;20099;-57
2022/07/14 05:27:44;;;;;;;4.43;1.05;;;;;;;25.72;43.56;100732.81;5104631;28;20520;-59
2022/07/14 05:30:20;;;;;;;3.30;0.80;;;;;;;25.82;43.44;100740.13;5102881;28;20059;-59
2022/07/14 05:32:48;;;;;;;4.45;0.77;;;;;;;25.91;43.03;100734.16;5105997;28;20075;-59
2022/07/14 05:35:16;;;;;;;5.97;1.10;;;;;;;26.03;43.13;100746.56;5103129;28;20048;-59
2022/07/14 05:40:27;;;;;;;2.92;0.82;;;;;;;26.33;42.25;100743.47;5094897;28;20051;-58
2022/07/14 05:42:55;;;;;;;4.25;0.98;;;;;;;26.46;41.94;100751.38;5103585;28;20040;-59
2022/07/14 05:45:30;;;;;;;3.00;0.82;;;;;;;26.54;41.58;100751.69;5106729;28;20058;-59
2022/07/14 05:48:01;;;;;;;6.80;0.90;;;;;;;26.56;41.47;100758.59;5108916;28;20051;-59
2022/07/14 05:50:29;;;;;;;5.60;0.98;;;;;;;26.59;41.05;100768.16;5105035;28;20055;-59
2022/07/14 05:52:59;;;;;;;13.32;0.75;;;;;;;26.63;41.02;100769.63;5100613;28;20048;-59
2022/07/14 05:55:35;;;;;;;10.68;0.95;;;;;;;26.61;40.63;100771.53;5104275;28;20113;-59
2022/07/14 05:58:03;;;;;;;12.70;0.90;;;;;;;26.66;40.42;100786.19;5106819;28;20047;-58
2022/07/14 06:00:36;;;;;;;5.90;0.88;;;;;;;26.64;40.02;100781.94;5103852;28;20055;-59
2022/07/14 06:03:04;;;;;;;9.90;2.00;;;;;;;26.65;40.33;100778.31;5098783;28;20480;-58
2022/07/14 06:05:41;;;;;;;10.20;0.90;;;;;;;26.62;40.22;100778.56;5101527;28;20444;-59
2022/07/14 06:08:10;;;;;;;9.18;1.10;;;;;;;26.62;40.06;100779.41;5104808;28;20142;-58
2022/07/14 06:10:41;;;;;;;3.88;0.82;;;;;;;26.68;39.79;100788.72;5107315;28;20051;-60
2022/07/14 06:13:09;;;;;;;5.20;0.80;;;;;;;26.78;39.73;100779.09;5108043;28;20371;-59
2022/07/14 06:15:44;;;;;;;7.32;1.05;;;;;;;26.96;39.67;100787.47;5103763;28;20129;-58
2022/07/14 06:18:14;;;;;;;5.57;0.88;;;;;;;27.02;39.47;100782.56;5102191;28;20112;-59
2022/07/14 06:20:45;;;;;;;7.18;0.80;;;;;;;26.92;39.08;100794.00;5103479;28;20070;-59
2022/07/14 06:23:13;;;;;;;6.38;0.80;;;;;;;26.87;39.14;100798.81;5105264;28;20528;-59
2022/07/14 06:25:40;;;;;;;9.13;0.95;;;;;;;26.86;39.27;100792.66;5102488;28;20048;-57
2022/07/14 06:28:08;;;;;;;7.68;0.93;;;;;;;26.80;38.68;100782.47;5104145;28;20054;-58
2022/07/14 06:30:36;;;;;;;12.60;1.30;;;;;;;26.80;39.13;100795.78;5100682;28;20048;-59
2022/07/14 06:33:07;;;;;;;6.53;1.10;;;;;;;26.83;39.00;100792.88;5103280;28;20048;-58
2022/07/14 06:35:37;;;;;;;4.22;0.80;;;;;;;26.87;38.73;100778.41;5103598;28;20055;-58
2022/07/14 06:38:05;;;;;;;16.55;1.45;;;;;;;26.91;38.44;100792.31;5109744;27;20459;-55
2022/07/14 06:40:34;;;;;;;9.45;1.30;;;;;;;26.99;38.36;100796.09;5098699;28;20059;-58
2022/07/14 06:43:02;;;;;;;18.52;1.85;;;;;;;27.13;38.24;100794.25;5108322;28;20048;-58
2022/07/14 06:45:31;;;;;;;9.05;1.35;;;;;;;27.23;38.27;100795.22;5102484;28;20081;-59
2022/07/14 06:48:01;;;;;;;4.68;1.13;;;;;;;27.41;37.61;100783.13;5107037;28;20392;-59
2022/07/14 06:50:44;;;;;;;4.22;1.08;;;;;;;27.53;36.73;100787.50;5104238;28;20060;-56
2022/07/14 06:53:11;;;;;;;2.72;0.80;;;;;;;27.50;37.72;100777.09;5099218;28;20047;-56
2022/07/14 06:55:39;;;;;;;4.88;0.70;;;;;;;27.38;37.65;100783.38;5100136;28;20062;-58
2022/07/14 06:58:08;;;;;;;24.67;1.85;;;;;;;27.41;37.61;100777.81;5104668;28;20047;-58
2022/07/14 07:00:34;;;;;;;9.80;0.93;;;;;;;27.46;37.51;100780.97;5100707;28;20519;-58
2022/07/14 07:03:01;;;;;;;3.53;0.75;;;;;;;27.52;37.49;100775.16;5104628;28;20048;-59
2022/07/14 07:08:17;;;;;;;5.30;0.70;;;;;;;27.74;37.64;100773.50;5104684;28;20058;-59
2022/07/14 07:10:58;;;;;;;230.88;18.08;;;;;;;27.83;37.67;100767.44;5108020;28;20063;-57
2022/07/14 07:13:26;;;;;;;25.00;1.95;;;;;;;27.88;37.42;100759.94;5105330;28;20044;-58
2022/07/14 07:15:54;;;;;;;8.25;1.10;;;;;;;27.91;37.28;100759.69;5112050;28;20043;-56
2022/07/14 07:18:24;;;;;;;8.07;0.85;;;;;;;27.86;36.93;100767.22;5103919;28;20052;-58
2022/07/14 07:21:09;;;;;;;8.02;0.90;;;;;;;27.88;36.73;100774.09;5108221;28;20044;-58
2022/07/14 07:23:44;;;;;;;4.72;0.75;;;;;;;27.96;36.91;100776.16;5110136;28;20632;-59
2022/07/14 07:26:15;;;;;;;7.65;0.90;;;;;;;27.98;36.73;100787.53;5103856;28;20117;-59
2022/07/14 07:28:41;;;;;;;15.00;2.03;;;;;;;28.08;36.39;100785.81;5110234;28;20048;-57
2022/07/14 07:31:12;;;;;;;27.92;3.25;;;;;;;28.16;36.18;100796.72;5105444;28;20404;-54
2022/07/14 07:33:42;;;;;;;12.95;1.20;;;;;;;28.10;35.96;100781.25;5106199;28;20084;-57
2022/07/14 07:36:21;;;;;;;4.70;1.10;;;;;;;28.19;35.47;100796.47;5107490;28;20091;-57
2022/07/14 07:38:49;;;;;;;7.55;1.25;;;;;;;28.14;35.51;100785.34;5107043;27;20062;-58
2022/07/14 07:41:17;;;;;;;6.65;0.98;;;;;;;27.97;35.86;100799.16;5103649;28;20048;-59
2022/07/14 07:43:47;;;;;;;10.50;0.95;;;;;;;27.81;36.27;100801.34;5106578;28;20039;-58
2022/07/14 07:46:17;;;;;;;12.85;1.65;;;;;;;27.57;36.39;100814.72;5108551;28;20120;-58
2022/07/14 07:48:47;;;;;;;22.65;1.55;;;;;;;27.31;36.78;100814.94;5109105;28;20062;-58
2022/07/14 07:51:16;;;;;;;7.07;0.93;;;;;;;26.98;37.59;100807.72;5102989;28;20055;-58
2022/07/14 07:53:44;;;;;;;1.88;0.82;;;;;;;26.80;37.81;100809.06;5109254;28;20384;-59
2022/07/14 07:56:12;;;;;;;6.07;0.90;;;;;;;26.84;37.95;100815.84;5107958;28;20044;-58
2022/07/14 07:58:39;;;;;;;2.78;0.60;;;;;;;27.01;37.81;100796.00;5107309;28;20117;-58
2022/07/14 08:01:08;;;;;;;6.68;0.73;;;;;;;27.25;37.28;100799.47;5104728;28;20505;-58
2022/07/14 08:03:37;;;;;;;6.72;0.80;;;;;;;27.54;36.36;100791.84;5105651;28;20130;-59
2022/07/14 08:06:04;;;;;;;2.60;0.90;;;;;;;27.76;35.70;100792.88;5107805;28;20048;-59
2022/07/14 08:08:39;;;;;;;6.60;1.10;;;;;;;27.89;35.03;100801.59;5108369;28;20055;-59
2022/07/14 08:11:09;;;;;;;2.05;0.68;;;;;;;27.96;35.15;100800.97;5107915;28;20104;-58
2022/07/14 08:13:39;;;;;;;3.60;0.70;;;;;;;28.06;35.08;100806.41;5113147;28;20058;-59
2022/07/14 08:16:08;;;;;;;9.75;1.30;;;;;;;28.20;35.10;100794.66;5105771;28;20064;-58
2022/07/14 08:18:34;;;;;;;41.30;3.55;;;;;;;28.39;34.86;100786.03;5102606;28;20054;-59
2022/07/14 08:21:03;;;;;;;11.77;1.23;;;;;;;28.61;34.26;100785.94;5106617;28;20460;-58
2022/07/14 08:23:40;;;;;;;7.60;0.80;;;;;;;28.85;33.90;100794.63;5102869;28;20098;-57
2022/07/14 08:26:07;;;;;;;5.75;0.70;;;;;;;29.09;33.79;100786.34;5101641;28;20056;-59
2022/07/14 08:28:35;;;;;;;7.68;0.95;;;;;;;29.15;33.38;100788.53;5099721;28;20051;-59
2022/07/14 08:31:04;;;;;;;21.25;1.42;;;;;;;29.06;33.24;100793.78;5109926;28;20113;-59
2022/07/14 08:33:31;;;;;;;8.82;0.93;;;;;;;28.88;33.48;100799.69;5106069;28;20104;-58
2022/07/14 08:36:02;;;;;;;25.05;1.45;;;;;;;28.73;33.49;100794.78;5100947;28;20059;-58
2022/07/14 08:38:31;;;;;;;29.42;2.47;;;;;;;28.45;33.89;100791.69;5109547;27;20052;-58
2022/07/14 08:41:12;;;;;;;6.57;1.30;;;;;;;28.42;33.78;100804.44;5110490;28;20051;-57
2022/07/14 08:43:51;;;;;;;4.20;0.70;;;;;;;28.20;34.35;100798.16;5102834;28;20499;-57
2022/07/14 08:46:22;;;;;;;32.40;2.33;;;;;;;28.15;34.48;100805.69;5108846;28;20055;-55
2022/07/14 08:48:50;;;;;;;8.18;1.05;;;;;;;28.21;34.29;100794.53;5104215;28;20056;-59
2022/07/14 08:51:18;;;;;;;8.82;0.80;;;;;;;28.31;34.07;100804.47;5106413;28;20051;-58
2022/07/14 08:53:46;;;;;;;12.48;1.42;;;;;;;28.25;33.81;100811.16;5105717;28;20039;-59
2022/07/14 08:56:14;;;;;;;11.68;1.10;;;;;;;28.10;34.06;100810.53;5108302;27;20135;-59
2022/07/14 08:58:52;;;;;;;14.57;1.33;;;;;;;28.24;33.36;100815.63;5105278;28;20051;-59
2022/07/14 09:01:21;;;;;;;5.95;0.60;;;;;;;28.50;32.92;100815.31;5102916;28;20044;-59
2022/07/14 09:03:48;;;;;;;8.68;0.80;;;;;;;28.57;33.12;100817.34;5106533;28;20115;-58
2022/07/14 09:06:53;;;;;;;4.90;1.08;;;;;;;28.51;32.44;100812.53;5105487;28;20090;-59
2022/07/14 09:09:23;;;;;;;6.63;0.95;;;;;;;28.40;33.37;100815.22;5105279;28;20059;-59
2022/07/14 09:12:30;;;;;;;14.95;1.02;;;;;;;28.18;32.78;100826.75;5103775;28;20064;-59
2022/07/14 09:18:00;;;;;;;15.20;1.40;;;;;;;27.78;33.97;100814.91;5049162;28;20064;-59
2022/07/14 09:20:37;;;;;;;5.95;0.88;;;;;;;27.61;33.97;100817.09;5032952;28;20053;-59
2022/07/14 09:23:06;;;;;;;11.25;0.95;;;;;;;27.63;33.99;100807.19;5041798;28;20045;-58
2022/07/14 09:25:38;;;;;;;5.30;0.80;;;;;;;27.67;34.11;100804.25;5056435;28;20044;-58
2022/07/14 09:28:10;;;;;;;11.27;1.38;;;;;;;27.69;33.98;100791.69;5105402;28;20491;-59
2022/07/14 09:30:38;;;;;;;7.97;1.05;;;;;;;27.67;33.97;100798.94;5102287;28;20052;-59
2022/07/14 09:33:09;;;;;;;4.70;0.68;;;;;;;27.76;34.24;100799.06;5101570;28;20040;-59
2022/07/14 09:35:42;;;;;;;5.38;0.75;;;;;;;27.85;34.02;100813.47;5107046;28;20055;-59
2022/07/14 09:38:18;;;;;;;6.05;0.88;;;;;;;27.88;33.54;100813.22;5112707;27;20379;-59
2022/07/14 09:40:46;;;;;;;6.57;0.95;;;;;;;27.86;33.54;100807.16;5104565;28;20055;-58
2022/07/14 09:43:17;;;;;;;7.07;0.70;;;;;;;27.83;33.89;100813.59;5108266;28;20044;-59
2022/07/14 09:45:47;;;;;;;5.90;1.58;;;;;;;27.81;33.23;100812.84;5103058;28;20134;-58
2022/07/14 09:48:16;;;;;;;3.40;0.80;;;;;;;27.75;33.38;100825.81;5106317;28;20083;-58
2022/07/14 09:50:48;;;;;;;45.92;2.75;;;;;;;27.77;33.07;100802.56;5102316;28;20058;-59
2022/07/14 09:53:20;;;;;;;11.80;1.17;;;;;;;27.77;33.24;100811.41;5105041;28;20051;-59
2022/07/14 09:56:08;;;;;;;18.48;1.30;;;;;;;27.77;32.81;100807.91;5107467;28;20373;-58
2022/07/14 09:58:51;;;;;;;5.63;0.77;;;;;;;27.69;32.87;100823.63;5104547;28;20059;-58
2022/07/14 10:01:23;;;;;;;540.22;56.75;;;;;;;27.53;32.96;100826.59;5101620;28;20087;-59
2022/07/14 10:03:55;;;;;;;21.52;3.28;;;;;;;27.30;32.82;100831.03;5100147;28;20077;-58
2022/07/14 10:06:24;;;;;;;6.75;1.10;;;;;;;27.02;33.02;100819.81;5102624;28;20161;-57
2022/07/14 10:08:57;;;;;;;15.10;1.17;;;;;;;27.03;33.20;100810.88;5101869;28;20106;-58
2022/07/14 10:11:29;;;;;;;7.93;0.95;;;;;;;27.05;32.95;100802.78;5100418;28;20048;-58
2022/07/14 10:14:12;;;;;;;7.68;1.35;;;;;;;27.02;32.88;100816.31;5100386;28;20052;-57
2022/07/14 10:16:45;;;;;;;25.23;2.25;;;;;;;26.93;32.84;100815.16;5093896;28;20063;-55
2022/07/14 10:19:14;;;;;;;6.47;1.25;;;;;;;26.89;33.27;100829.66;5093023;28;20134;-57
2022/07/14 10:21:45;;;;;;;17.42;0.98;;;;;;;26.79;33.45;100822.47;5093487;28;20055;-58
2022/07/14 10:24:14;;;;;;;14.77;1.42;;;;;;;26.58;33.97;100820.47;5099012;28;20126;-58
2022/07/14 10:26:50;;;;;;;14.13;1.02;;;;;;;26.44;34.32;100822.41;5107678;28;20055;-58
2022/07/14 10:29:28;;;;;;;9.85;0.85;;;;;;;26.29;34.49;100833.19;5105319;28;20051;-59
2022/07/14 10:32:37;;;;;;;351.17;25.70;;;;;;;26.09;35.02;100831.13;5104462;28;20061;-59
2022/07/14 10:35:21;;;;;;;11.85;1.60;;;;;;;25.89;35.20;100826.34;5103757;28;20101;-56
2022/07/14 10:38:07;;;;;;;5.95;0.80;;;;;;;25.76;35.90;100826.38;5099544;28;20469;-58
2022/07/14 10:40:45;;;;;;;2.90;0.80;;;;;;;25.79;35.97;100811.06;5105406;28;20055;-59
2022/07/14 10:43:19;;;;;;;168.05;12.45;;;;;;;25.83;35.83;100816.16;5104513;28;20113;-58
2022/07/14 10:45:55;;;;;;;8.30;0.90;;;;;;;25.81;36.09;100812.75;5106082;28;20052;-59
2022/07/14 10:48:39;;;;;;;14.93;1.52;;;;;;;25.77;36.16;100817.44;5105518;28;20061;-58
2022/07/14 10:51:31;;;;;;;12.63;1.50;;;;;;;25.84;36.31;100817.88;5105018;28;20056;-58
2022/07/14 10:54:13;;;;;;;7.60;0.65;;;;;;;26.01;35.64;100809.53;5102269;28;20039;-59
2022/07/14 10:56:42;;;;;;;3.42;0.55;;;;;;;26.11;36.01;100802.63;5103513;28;20745;-59
2022/07/14 10:59:36;;;;;;;10.27;1.00;;;;;;;26.04;34.92;100820.81;5106081;28;20051;-59
2022/07/14 11:02:38;;;;;;;227.98;18.10;;;;;;;26.06;34.96;100812.75;5101742;28;20052;-59
2022/07/14 11:05:16;;;;;;;4.95;1.83;;;;;;;26.08;35.20;100821.44;5094084;28;20058;-56
2022/07/14 11:07:51;;;;;;;5.15;0.77;;;;;;;26.14;35.37;100821.00;5100265;28;20115;-59
2022/07/14 11:10:41;;;;;;;;;;;;;;;26.11;34.88;100815.91;5104877;28;20421;-59
2022/07/14 11:13:17;;;;;;;7.78;0.90;;;;;;;25.98;35.76;100820.38;5103934;28;19920;-58
2022/07/14 11:15:55;;;;;;;6.45;0.77;;;;;;;25.84;35.76;100829.34;5105650;28;20063;-59
2022/07/14 11:18:33;;;;;;;2.95;0.55;;;;;;;25.75;36.00;100820.22;5104106;28;20050;-58
2022/07/14 11:21:06;;;;;;;5.10;0.90;;;;;;;25.77;36.02;100815.63;5104631;28;20059;-57
2022/07/14 11:23:45;;;;;;;7.50;1.00;;;;;;;25.82;35.79;100819.78;5099017;28;20044;-58
2022/07/14 11:26:36;;;;;;;46.33;2.53;;;;;;;25.85;34.90;100819.56;5109318;28;20128;-58
2022/07/14 11:29:06;;;;;;;9.70;1.05;;;;;;;25.76;35.51;100821.06;5103700;28;20133;-58
2022/07/14 11:31:47;;;;;;;13.57;1.10;;;;;;;25.78;35.48;100809.38;5101916;28;20191;-59
2022/07/14 11:37:16;;;;;;;14.65;1.45;;;;;;;25.96;35.21;100806.38;5098754;28;20474;-59
2022/07/14 11:39:53;;;;;;;28.50;2.20;;;;;;;26.00;35.23;100808.69;5110374;28;20504;-58
2022/07/14 11:42:23;;;;;;;12.20;1.58;;;;;;;26.04;35.37;100825.28;5098666;28;20527;-59
2022/07/14 11:44:54;;;;;;;97.30;9.30;;;;;;;25.97;35.45;100813.38;5102808;28;20479;-58
2022/07/14 11:47:24;;;;;;;11.85;1.63;;;;;;;25.88;35.79;100829.97;5104041;28;20143;-57
2022/07/14 11:50:11;;;;;;;22.45;1.20;;;;;;;25.83;34.58;100826.78;5103112;28;20048;-58
2022/07/14 11:52:41;;;;;;;17.17;1.38;;;;;;;25.77;35.33;100818.28;5106454;28;20392;-57
2022/07/14 11:55:12;;;;;;;19.50;1.77;;;;;;;25.75;35.42;100820.22;5105935;28;20044;-56
2022/07/14 11:57:40;;;;;;;2.90;0.75;;;;;;;25.75;35.49;100808.75;5111395;28;20410;-58
2022/07/14 12:00:11;;;;;;;3.75;0.50;;;;;;;25.73;35.56;100808.84;5104987;28;20134;-56
2022/07/14 12:02:51;;;;;;;2.30;0.70;;;;;;;25.75;35.50;100801.63;5105545;28;20147;-58
2022/07/14 12:05:22;;;;;;;22.13;2.28;;;;;;;25.73;35.94;100800.88;5107793;28;20059;-58
2022/07/14 12:07:53;;;;;;;79.90;5.60;;;;;;;25.73;35.82;100802.69;5107896;28;20121;-58
2022/07/14 12:10:39;;;;;;;17.80;1.63;;;;;;;25.73;34.98;100795.56;5108494;28;20056;-58
2022/07/14 12:13:07;;;;;;;10.60;1.13;;;;;;;25.70;35.62;100806.41;5095998;28;20052;-57